createdAt,value
2019-03-03T00:03:17.979Z,41.20
2019-03-03T00:07:34.487Z,40.83
2019-03-03T00:11:51.067Z,42.30
2019-03-03T00:16:07.534Z,43.40
2019-03-03T00:20:24.036Z,39.03
2019-03-03T00:24:40.535Z,38.53
2019-03-03T00:28:57.392Z,33.97
2019-03-03T00:33:14.097Z,37.93
2019-03-03T00:37:47.549Z,36.40
2019-03-03T00:42:06.513Z,39.47
2019-03-03T00:46:41.458Z,32.07
2019-03-03T00:51:09.853Z,30.23
2019-03-03T00:55:30.978Z,33.57
2019-03-03T00:59:49.366Z,30.67
2019-03-03T01:04:13.439Z,29.57
2019-03-03T01:08:34.843Z,27.03
2019-03-03T01:12:59.524Z,26.63
2019-03-03T01:17:18.045Z,26.33
2019-03-03T01:21:39.685Z,21.37
2019-03-03T01:25:56.115Z,23.93
2019-03-03T01:30:13.319Z,22.47
2019-03-03T01:34:30.332Z,22.83
2019-03-03T01:38:47.527Z,20.83
2019-03-03T01:43:04.042Z,15.27
2019-03-03T01:47:20.555Z,17.30
2019-03-03T01:51:37.068Z,13.40
2019-03-03T01:55:53.597Z,13.60
2019-03-03T02:00:22.905Z,12.03
2019-03-03T02:04:39.429Z,11.07
2019-03-03T02:08:56.055Z,12.87
2019-03-03T02:13:12.756Z,10.73
2019-03-03T02:17:29.291Z,11.80
2019-03-03T02:21:45.806Z,12.30
2019-03-03T02:26:02.899Z,13.60
2019-03-03T02:30:20.587Z,11.37
2019-03-03T02:34:37.184Z,10.77
2019-03-03T02:38:53.823Z,13.67
2019-03-03T02:43:10.558Z,10.90
2019-03-03T02:47:27.287Z,10.43
2019-03-03T02:51:43.749Z,10.80
2019-03-03T02:56:00.270Z,10.07
2019-03-03T03:00:21.327Z,11.33
2019-03-03T03:04:38.099Z,8.73
2019-03-03T03:09:05.689Z,10.03
2019-03-03T03:13:24.095Z,9.50
2019-03-03T03:17:54.606Z,9.07
2019-03-03T03:22:18.738Z,8.60
2019-03-03T03:26:49.131Z,8.27
2019-03-03T03:31:07.533Z,9.03
2019-03-03T03:35:25.911Z,8.20
2019-03-03T03:39:44.245Z,8.97
2019-03-03T03:44:05.284Z,7.27
2019-03-03T03:48:26.979Z,7.57
2019-03-03T03:53:07.778Z,7.40
2019-03-03T03:57:32.084Z,7.30
2019-03-03T04:01:53.524Z,7.33
2019-03-03T04:06:15.253Z,7.07
2019-03-03T04:10:42.929Z,6.90
2019-03-03T04:15:10.350Z,8.60
2019-03-03T04:19:43.759Z,7.00
2019-03-03T04:24:04.948Z,6.53
2019-03-03T04:28:23.313Z,6.70
2019-03-03T04:32:41.674Z,7.63
2019-03-03T04:37:15.351Z,6.00
2019-03-03T04:41:45.582Z,7.60
2019-03-03T04:46:07.029Z,6.27
2019-03-03T04:50:41.053Z,5.90
2019-03-03T04:55:02.329Z,6.17
2019-03-03T04:59:29.879Z,5.10
2019-03-03T05:03:48.232Z,6.57
2019-03-03T05:08:06.598Z,7.57
2019-03-03T05:12:25.237Z,6.17
2019-03-03T05:16:43.607Z,7.80
2019-03-03T05:21:00.034Z,7.53
2019-03-03T05:25:16.722Z,5.60
2019-03-03T05:29:33.512Z,6.00
2019-03-03T05:33:50.043Z,6.50
2019-03-03T05:38:06.556Z,5.27
2019-03-03T05:42:22.946Z,8.80
2019-03-03T05:46:39.914Z,6.77
2019-03-03T05:50:56.382Z,7.00
2019-03-03T05:55:12.907Z,6.47
2019-03-03T05:59:29.646Z,10.67
2019-03-03T06:03:46.131Z,10.97
2019-03-03T06:08:03.031Z,10.67
2019-03-03T06:12:19.480Z,8.83
2019-03-03T06:16:36.000Z,9.20
2019-03-03T06:20:52.834Z,8.53
2019-03-03T06:25:09.555Z,10.43
2019-03-03T06:29:26.037Z,8.83
2019-03-03T06:33:42.573Z,7.73
2019-03-03T06:37:59.282Z,7.13
2019-03-03T06:42:15.781Z,6.83
2019-03-03T06:46:32.627Z,7.30
2019-03-03T06:50:49.165Z,7.00
2019-03-03T06:55:38.246Z,7.33
2019-03-03T06:59:54.767Z,7.23
2019-03-03T07:04:11.351Z,8.33
2019-03-03T07:08:27.975Z,5.53
2019-03-03T07:12:44.462Z,5.10
2019-03-03T07:17:01.111Z,7.33
2019-03-03T07:21:17.601Z,5.50
2019-03-03T07:25:34.231Z,5.23
2019-03-03T07:29:50.711Z,9.90
2019-03-03T07:34:07.166Z,5.67
2019-03-03T07:38:23.798Z,9.00
2019-03-03T07:42:40.301Z,4.00
2019-03-03T07:46:56.798Z,6.37
2019-03-03T07:51:13.343Z,5.73
2019-03-03T07:55:29.835Z,5.87
2019-03-03T07:59:46.361Z,8.20
2019-03-03T08:04:03.303Z,5.80
2019-03-03T08:08:19.795Z,7.37
2019-03-03T08:12:36.311Z,10.03
2019-03-03T08:16:52.827Z,7.40
2019-03-03T08:21:09.343Z,7.83
2019-03-03T08:25:25.839Z,5.57
2019-03-03T08:29:42.369Z,4.77
2019-03-03T08:33:58.896Z,6.53
2019-03-03T08:38:15.684Z,4.87
2019-03-03T08:42:40.006Z,5.33
2019-03-03T08:46:58.444Z,4.90
2019-03-03T08:51:29.056Z,4.97
2019-03-03T08:56:04.163Z,10.20
2019-03-03T09:00:28.389Z,6.73
2019-03-03T09:04:47.026Z,4.90
2019-03-03T09:09:13.939Z,5.80
2019-03-03T09:13:32.313Z,5.90
2019-03-03T09:17:53.318Z,6.67
2019-03-03T09:22:11.685Z,3.37
2019-03-03T09:26:36.026Z,8.10
2019-03-03T09:30:57.175Z,3.40
2019-03-03T09:35:15.545Z,5.00
2019-03-03T09:39:36.595Z,6.93
2019-03-03T09:43:57.871Z,6.73
2019-03-03T09:48:25.127Z,5.50
2019-03-03T09:52:46.451Z,5.00
2019-03-03T09:57:05.710Z,4.63
2019-03-03T10:01:28.335Z,4.33
2019-03-03T10:06:01.709Z,6.90
2019-03-03T10:10:32.104Z,7.17
2019-03-03T10:15:07.076Z,5.07
2019-03-03T10:19:43.486Z,5.70
2019-03-03T10:24:02.440Z,7.87
2019-03-03T10:28:29.687Z,7.27
2019-03-03T10:32:54.439Z,6.13
2019-03-03T10:37:14.454Z,7.13
2019-03-03T10:41:49.650Z,5.33
2019-03-03T10:46:16.960Z,4.63
2019-03-03T10:50:53.985Z,3.63
2019-03-03T10:55:30.596Z,4.83
2019-03-03T10:59:58.130Z,8.83
2019-03-03T11:04:33.605Z,9.77
2019-03-03T11:09:06.986Z,12.23
2019-03-03T11:13:28.648Z,5.67
2019-03-03T11:17:47.016Z,8.53
2019-03-03T11:22:11.625Z,5.83
2019-03-03T11:26:32.658Z,3.23
2019-03-03T11:30:54.045Z,6.20
2019-03-03T11:35:21.647Z,6.03
2019-03-03T11:39:42.878Z,6.80
2019-03-03T11:44:03.932Z,6.90
2019-03-03T11:48:25.270Z,6.97
2019-03-03T11:52:43.713Z,7.83
2019-03-03T11:57:10.957Z,7.60
2019-03-03T12:01:35.144Z,7.10
2019-03-03T12:06:05.529Z,6.33
2019-03-03T12:10:24.189Z,5.07
2019-03-03T12:14:42.829Z,8.07
2019-03-03T12:19:07.710Z,4.40
2019-03-03T12:23:41.752Z,4.60
2019-03-03T12:28:16.629Z,4.33
2019-03-03T12:32:37.931Z,8.70
2019-03-03T12:36:56.312Z,5.30
2019-03-03T12:41:23.440Z,6.77
2019-03-03T12:45:54.080Z,7.00
2019-03-03T12:50:15.816Z,6.27
2019-03-03T12:54:38.838Z,8.27
2019-03-03T12:59:12.772Z,5.70
2019-03-03T13:03:31.206Z,6.30
2019-03-03T13:08:01.508Z,10.30
2019-03-03T13:12:22.656Z,7.23
2019-03-03T13:16:59.363Z,6.50
2019-03-03T13:21:23.837Z,7.87
2019-03-03T13:25:48.550Z,7.37
2019-03-03T13:30:10.648Z,6.73
2019-03-03T13:34:32.145Z,4.23
2019-03-03T13:38:56.504Z,6.57
2019-03-03T13:43:13.137Z,5.83
2019-03-03T13:47:29.692Z,8.83
2019-03-03T13:51:46.464Z,4.67
2019-03-03T13:56:03.165Z,7.03
2019-03-03T14:00:21.477Z,8.77
2019-03-03T14:04:38.181Z,4.87
2019-03-03T14:08:55.694Z,7.07
2019-03-03T14:13:12.509Z,6.57
2019-03-03T14:17:29.650Z,8.37
2019-03-03T14:21:46.448Z,5.50
2019-03-03T14:26:03.321Z,7.43
2019-03-03T14:30:22.907Z,7.33
2019-03-03T14:34:39.476Z,8.17
2019-03-03T14:38:56.072Z,6.43
2019-03-03T14:43:13.144Z,4.30
2019-03-03T14:47:29.731Z,6.43
2019-03-03T14:51:46.239Z,5.33
2019-03-03T14:56:02.888Z,6.27
2019-03-03T15:00:29.454Z,5.73
2019-03-03T15:04:46.373Z,8.80
2019-03-03T15:09:05.982Z,8.63
2019-03-03T15:13:24.384Z,7.37
2019-03-03T15:17:41.357Z,6.30
2019-03-03T15:21:58.679Z,7.07
2019-03-03T15:26:15.283Z,7.30
2019-03-03T15:30:32.010Z,6.27
2019-03-03T15:34:48.512Z,5.80
2019-03-03T15:39:06.713Z,6.00
2019-03-03T15:43:23.212Z,6.83
2019-03-03T15:47:40.100Z,4.13
2019-03-03T15:51:56.647Z,6.93
2019-03-03T15:56:13.792Z,7.10
2019-03-03T16:00:38.953Z,3.73
2019-03-03T16:04:55.515Z,5.10
2019-03-03T16:09:14.895Z,7.60
2019-03-03T16:13:31.998Z,5.97
2019-03-03T16:17:49.454Z,6.00
2019-03-03T16:22:06.739Z,4.90
2019-03-03T16:26:24.148Z,5.90
2019-03-03T16:30:40.626Z,7.17
2019-03-03T16:34:57.238Z,6.20
2019-03-03T16:39:14.192Z,5.50
2019-03-03T16:43:31.025Z,4.07
2019-03-03T16:47:48.416Z,7.17
2019-03-03T16:52:05.155Z,9.90
2019-03-03T16:56:21.694Z,5.63
2019-03-03T17:00:38.373Z,5.03
2019-03-03T17:04:57.032Z,6.23
2019-03-03T17:09:15.392Z,7.07
2019-03-03T17:13:35.460Z,6.53
2019-03-03T17:17:53.451Z,3.83
2019-03-03T17:22:10.098Z,4.93
2019-03-03T17:26:28.073Z,3.60
2019-03-03T17:30:47.527Z,5.37
2019-03-03T17:35:05.603Z,4.93
2019-03-03T17:39:24.931Z,4.17
2019-03-03T17:43:42.368Z,2.97
2019-03-03T17:47:59.612Z,2.93
2019-03-03T17:52:17.576Z,6.53
2019-03-03T17:56:34.097Z,4.90
2019-03-03T18:00:50.903Z,3.93
2019-03-03T18:05:07.724Z,5.90
2019-03-03T18:09:24.547Z,4.13
2019-03-03T18:13:41.060Z,3.67
2019-03-03T18:17:57.983Z,4.00
2019-03-03T18:22:14.484Z,2.90
2019-03-03T18:26:33.276Z,5.87
2019-03-03T18:30:50.090Z,3.33
2019-03-03T18:35:08.282Z,3.63
2019-03-03T18:39:25.055Z,3.10
2019-03-03T18:43:41.609Z,2.77
2019-03-03T18:47:58.236Z,3.57
2019-03-03T18:52:15.943Z,3.13
2019-03-03T18:56:32.490Z,3.73
2019-03-03T19:00:49.129Z,3.23
2019-03-03T19:05:07.020Z,5.17
2019-03-03T19:09:24.942Z,5.60
2019-03-03T19:13:45.230Z,6.93
2019-03-03T19:18:04.019Z,5.80
2019-03-03T19:22:22.852Z,7.73
2019-03-03T19:26:39.777Z,4.40
2019-03-03T19:30:56.321Z,3.70
2019-03-03T19:35:14.446Z,3.23
2019-03-03T19:39:32.176Z,2.47
2019-03-03T19:43:51.104Z,2.57
2019-03-03T19:48:10.870Z,4.17
2019-03-03T19:52:30.267Z,2.73
2019-03-03T19:56:47.850Z,4.93
2019-03-03T20:01:05.924Z,3.93
2019-03-03T20:05:22.639Z,2.43
2019-03-03T20:09:39.592Z,3.97
2019-03-03T20:13:57.102Z,2.47
2019-03-03T20:18:14.026Z,2.77
2019-03-03T20:22:30.653Z,3.73
2019-03-03T20:26:47.567Z,3.73
2019-03-03T20:31:04.168Z,2.77
2019-03-03T20:35:21.098Z,2.80
2019-03-03T20:39:38.537Z,1.67
2019-03-03T20:43:55.069Z,4.07
2019-03-03T20:48:13.523Z,7.53
2019-03-03T20:52:30.043Z,3.50
2019-03-03T20:56:46.667Z,2.57
2019-03-03T21:01:03.374Z,3.90
2019-03-03T21:05:20.124Z,4.60
2019-03-03T21:09:36.998Z,4.53
2019-03-03T21:13:55.605Z,3.10
2019-03-03T21:18:12.102Z,3.90
2019-03-03T21:22:29.756Z,3.63
2019-03-03T21:26:46.376Z,5.47
2019-03-03T21:31:03.054Z,5.87
2019-03-03T21:35:20.069Z,2.77
2019-03-03T21:39:36.719Z,5.03
2019-03-03T21:43:53.272Z,4.17
2019-03-03T21:48:16.457Z,3.00
2019-03-03T21:52:32.915Z,6.00
2019-03-03T21:56:49.438Z,4.30
2019-03-03T22:01:07.775Z,5.90
2019-03-03T22:05:24.613Z,3.80
2019-03-03T22:09:41.102Z,3.27
2019-03-03T22:13:57.524Z,3.13
2019-03-03T22:18:14.050Z,3.27
2019-03-03T22:22:30.559Z,2.57
2019-03-03T22:26:47.094Z,4.17
2019-03-03T22:31:03.583Z,2.80
2019-03-03T22:35:20.355Z,3.70
2019-03-03T22:39:36.955Z,6.47
2019-03-03T22:43:54.220Z,3.10
2019-03-03T22:48:10.679Z,3.77
2019-03-03T22:52:27.452Z,5.17
2019-03-03T22:56:43.911Z,4.87
2019-03-03T23:01:10.136Z,4.70
2019-03-03T23:05:56.263Z,4.03
2019-03-03T23:10:31.709Z,6.93
2019-03-03T23:14:58.002Z,6.00
2019-03-03T23:19:27.658Z,4.73
2019-03-03T23:23:50.674Z,5.90
2019-03-03T23:28:07.513Z,3.23
2019-03-03T23:32:24.086Z,5.10
2019-03-03T23:36:40.629Z,5.90
2019-03-03T23:40:57.138Z,5.47
2019-03-03T23:45:13.645Z,4.60
2019-03-03T23:49:30.070Z,4.23
2019-03-03T23:53:47.506Z,3.13
2019-03-03T23:58:03.986Z,6.97
